createdAt,value
2022-09-30T00:01:36.424Z,99.90
2022-09-30T00:04:05.337Z,99.90
2022-09-30T00:06:35.978Z,99.90
2022-09-30T00:09:06.034Z,99.90
2022-09-30T00:11:36.140Z,99.90
2022-09-30T00:14:04.525Z,99.90
2022-09-30T00:16:35.070Z,99.90
2022-09-30T00:19:03.824Z,99.90
2022-09-30T00:21:33.845Z,99.90
2022-09-30T00:24:03.023Z,99.90
2022-09-30T00:26:33.696Z,99.90
2022-09-30T00:29:03.101Z,99.90
2022-09-30T00:31:33.896Z,99.90
2022-09-30T00:34:08.484Z,99.90
2022-09-30T00:36:39.587Z,99.90
2022-09-30T00:39:09.965Z,99.90
2022-09-30T00:41:39.397Z,99.90
2022-09-30T00:44:46.415Z,99.90
2022-09-30T00:47:50.117Z,99.90
2022-09-30T00:50:27.139Z,99.90
2022-09-30T00:53:01.485Z,99.90
2022-09-30T00:55:36.558Z,99.90
2022-09-30T00:58:09.687Z,99.90
2022-09-30T01:00:38.214Z,99.90
2022-09-30T01:03:07.772Z,99.90
2022-09-30T01:05:36.404Z,99.90
2022-09-30T01:08:06.920Z,99.90
2022-09-30T01:10:34.999Z,99.90
2022-09-30T01:13:03.112Z,99.90
2022-09-30T01:15:47.723Z,99.90
2022-09-30T01:18:27.181Z,99.90
2022-09-30T01:21:24.329Z,99.90
2022-09-30T01:24:27.687Z,99.90
2022-09-30T01:27:15.282Z,99.90
2022-09-30T01:30:00.693Z,99.90
2022-09-30T01:33:00.302Z,99.90
2022-09-30T01:35:38.849Z,99.90
2022-09-30T01:38:14.574Z,99.90
2022-09-30T01:40:47.043Z,99.90
2022-09-30T01:43:25.402Z,99.90
2022-09-30T01:45:59.879Z,99.90
2022-09-30T01:48:37.694Z,99.90
2022-09-30T01:51:10.125Z,99.90
2022-09-30T01:53:45.164Z,99.90
2022-09-30T01:56:18.933Z,99.90
2022-09-30T01:58:54.360Z,99.90
2022-09-30T02:01:25.743Z,99.90
2022-09-30T02:03:58.043Z,99.90
2022-09-30T02:06:31.884Z,99.90
2022-09-30T02:09:03.743Z,99.90
2022-09-30T02:11:36.361Z,99.90
2022-09-30T02:14:09.801Z,99.90
2022-09-30T02:16:40.930Z,99.90
2022-09-30T02:19:20.392Z,99.90
2022-09-30T02:21:55.110Z,99.90
2022-09-30T02:24:26.003Z,99.90
2022-09-30T02:26:57.280Z,99.90
2022-09-30T02:29:29.379Z,99.90
2022-09-30T02:32:01.990Z,99.90
2022-09-30T02:34:37.353Z,99.90
2022-09-30T02:37:10.491Z,99.90
2022-09-30T02:39:43.151Z,99.90
2022-09-30T02:42:20.478Z,99.90
2022-09-30T02:44:49.442Z,99.90
2022-09-30T02:47:26.877Z,99.90
2022-09-30T02:50:03.061Z,99.90
2022-09-30T02:52:41.554Z,99.90
2022-09-30T02:55:19.821Z,99.90
2022-09-30T02:58:00.210Z,99.90
2022-09-30T03:00:28.631Z,99.90
2022-09-30T03:03:02.258Z,99.90
2022-09-30T03:05:31.869Z,99.90
2022-09-30T03:08:00.016Z,99.90
2022-09-30T03:10:30.381Z,99.90
2022-09-30T03:13:22.388Z,99.90
2022-09-30T03:16:08.199Z,99.90
2022-09-30T03:18:55.009Z,99.90
2022-09-30T03:21:42.048Z,99.90
2022-09-30T03:24:36.528Z,99.90
2022-09-30T03:27:14.637Z,99.90
2022-09-30T03:29:48.608Z,99.90
2022-09-30T03:32:31.629Z,99.90
2022-09-30T03:35:13.383Z,99.90
2022-09-30T03:37:51.826Z,99.90
2022-09-30T03:40:29.796Z,99.90
2022-09-30T03:43:05.088Z,99.90
2022-09-30T03:45:36.821Z,99.90
2022-09-30T03:48:08.775Z,99.90
2022-09-30T03:50:38.741Z,99.90
2022-09-30T03:53:12.504Z,99.90
2022-09-30T03:55:51.058Z,99.90
2022-09-30T03:58:22.116Z,99.90
2022-09-30T04:00:52.893Z,99.90
2022-09-30T04:03:23.373Z,99.90
2022-09-30T04:05:51.468Z,99.90
2022-09-30T04:08:22.250Z,99.90
2022-09-30T04:10:50.238Z,99.90
2022-09-30T04:13:18.192Z,99.90
2022-09-30T04:15:54.317Z,99.90
2022-09-30T04:18:22.299Z,99.90
2022-09-30T04:20:50.245Z,99.90
2022-09-30T04:23:18.245Z,99.90
2022-09-30T04:25:53.210Z,99.90
2022-09-30T04:28:21.256Z,99.90
2022-09-30T04:30:49.318Z,99.90
2022-09-30T04:33:17.318Z,99.90
2022-09-30T04:35:45.393Z,99.90
2022-09-30T04:38:13.416Z,99.90
2022-09-30T04:40:41.410Z,99.90
2022-09-30T04:43:10.778Z,99.90
2022-09-30T04:45:39.204Z,99.90
2022-09-30T04:48:07.307Z,99.90
2022-09-30T04:50:35.318Z,99.90
2022-09-30T04:53:03.766Z,99.90
2022-09-30T04:55:31.905Z,99.90
2022-09-30T04:57:59.900Z,99.90
2022-09-30T05:00:29.290Z,99.90
2022-09-30T05:02:57.715Z,99.90
2022-09-30T05:05:25.762Z,99.90
2022-09-30T05:07:53.735Z,99.90
2022-09-30T05:10:21.840Z,99.90
2022-09-30T05:12:49.824Z,99.90
2022-09-30T05:15:17.908Z,99.90
2022-09-30T05:17:50.315Z,99.90
2022-09-30T05:20:21.118Z,99.90
2022-09-30T05:22:54.328Z,99.90
2022-09-30T05:25:23.444Z,99.90
2022-09-30T05:27:51.680Z,99.90
2022-09-30T05:30:19.688Z,99.90
2022-09-30T05:32:49.045Z,99.90
2022-09-30T05:35:17.151Z,99.90
2022-09-30T05:37:45.134Z,99.90
2022-09-30T05:40:13.089Z,99.90
2022-09-30T05:42:41.082Z,99.90
2022-09-30T05:45:09.736Z,99.90
2022-09-30T05:47:37.722Z,99.90
2022-09-30T05:50:07.753Z,99.90
2022-09-30T05:52:36.318Z,99.90
2022-09-30T05:55:04.599Z,99.90
2022-09-30T05:57:32.568Z,99.90
2022-09-30T06:00:01.709Z,99.90
2022-09-30T06:02:39.817Z,99.90
2022-09-30T06:05:10.571Z,99.90
2022-09-30T06:07:39.573Z,99.90
2022-09-30T06:10:12.167Z,99.90
2022-09-30T06:12:40.656Z,99.90
2022-09-30T06:15:09.954Z,99.90
2022-09-30T06:17:37.905Z,99.90
2022-09-30T06:20:06.562Z,99.90
2022-09-30T06:22:36.960Z,99.90
2022-09-30T06:25:06.346Z,99.90
2022-09-30T06:27:35.186Z,99.90
2022-09-30T06:30:03.248Z,99.90
2022-09-30T06:32:31.226Z,99.90
2022-09-30T06:34:59.241Z,99.90
2022-09-30T06:37:27.578Z,99.90
2022-09-30T06:39:56.897Z,99.90
2022-09-30T06:42:24.987Z,99.90
2022-09-30T06:44:53.713Z,99.90
2022-09-30T06:47:25.445Z,99.90
2022-09-30T06:49:58.563Z,99.90
2022-09-30T06:52:27.290Z,99.90
2022-09-30T06:54:57.398Z,99.90
2022-09-30T06:57:27.697Z,99.90
2022-09-30T06:59:56.163Z,99.90
2022-09-30T07:02:24.209Z,99.90
2022-09-30T07:04:52.332Z,99.90
2022-09-30T07:07:20.837Z,99.90
2022-09-30T07:09:49.002Z,99.90
2022-09-30T07:12:18.406Z,99.90
2022-09-30T07:14:46.845Z,99.90
2022-09-30T07:17:14.855Z,99.90
2022-09-30T07:19:42.941Z,99.90
2022-09-30T07:22:29.856Z,99.90
2022-09-30T07:24:58.955Z,99.90
2022-09-30T07:27:29.550Z,99.90
2022-09-30T07:30:08.699Z,99.90
2022-09-30T07:32:39.761Z,99.90
2022-09-30T07:35:08.480Z,99.90
2022-09-30T07:37:37.038Z,99.90
2022-09-30T07:40:09.436Z,99.90
2022-09-30T07:42:45.390Z,99.90
2022-09-30T07:45:16.735Z,99.90
2022-09-30T07:47:47.439Z,99.90
2022-09-30T07:50:17.764Z,99.90
2022-09-30T07:52:45.763Z,99.90
2022-09-30T07:55:13.747Z,99.90
2022-09-30T07:57:43.061Z,99.90
2022-09-30T08:00:37.328Z,99.90
2022-09-30T08:03:00.031Z,99.90
2022-09-30T08:05:28.018Z,99.90
2022-09-30T08:07:56.014Z,99.90
2022-09-30T08:10:24.142Z,99.90
2022-09-30T08:12:56.055Z,99.90
2022-09-30T08:15:27.155Z,99.90
2022-09-30T08:17:55.171Z,99.90
2022-09-30T08:20:23.256Z,99.90
2022-09-30T08:22:53.919Z,99.90
2022-09-30T08:25:22.285Z,99.90
2022-09-30T08:27:50.396Z,99.90
2022-09-30T08:30:19.863Z,99.90
2022-09-30T08:32:47.959Z,99.90
2022-09-30T08:35:16.098Z,99.90
2022-09-30T08:37:44.111Z,99.90
2022-09-30T08:40:20.010Z,99.90
2022-09-30T08:43:06.242Z,99.90
2022-09-30T08:45:44.168Z,99.90
2022-09-30T08:48:28.742Z,99.90
2022-09-30T08:51:07.840Z,99.90
2022-09-30T08:53:38.888Z,99.90
2022-09-30T08:56:08.188Z,99.90
2022-09-30T08:58:39.785Z,99.90
2022-09-30T09:01:18.689Z,99.90
2022-09-30T09:03:47.074Z,99.90
2022-09-30T09:06:27.625Z,99.90
2022-09-30T09:09:21.509Z,99.90
2022-09-30T09:12:03.069Z,99.90
2022-09-30T09:14:40.820Z,99.90
2022-09-30T09:17:20.719Z,99.90
2022-09-30T09:19:58.403Z,99.90
2022-09-30T09:22:28.331Z,99.90
2022-09-30T09:24:57.146Z,99.90
2022-09-30T09:30:08.217Z,99.90
2022-09-30T09:32:37.715Z,99.90
2022-09-30T09:35:16.337Z,99.90
2022-09-30T09:38:26.168Z,99.90
2022-09-30T09:41:14.559Z,99.90
2022-09-30T09:43:52.717Z,99.90
2022-09-30T09:46:26.313Z,99.90
2022-09-30T09:49:31.120Z,99.90
2022-09-30T09:52:24.195Z,99.90
2022-09-30T09:54:56.636Z,99.90
2022-09-30T09:57:31.144Z,99.90
2022-09-30T10:00:21.145Z,99.90
2022-09-30T10:03:01.669Z,99.90
2022-09-30T10:05:39.460Z,99.90
2022-09-30T10:08:15.752Z,99.90
2022-09-30T10:10:48.327Z,99.90
2022-09-30T10:13:21.770Z,99.90
2022-09-30T10:15:51.640Z,99.90
2022-09-30T10:18:24.631Z,99.90
2022-09-30T10:20:58.676Z,99.90
2022-09-30T10:23:32.858Z,99.90
2022-09-30T10:26:04.919Z,99.90
2022-09-30T10:28:35.755Z,99.90
2022-09-30T10:31:07.830Z,99.90
2022-09-30T10:33:44.991Z,99.90
2022-09-30T10:36:17.923Z,99.90
2022-09-30T10:39:00.001Z,99.90
2022-09-30T10:41:33.238Z,99.90
2022-09-30T10:44:04.723Z,99.90
2022-09-30T10:46:35.298Z,99.90
2022-09-30T10:49:10.748Z,99.90
2022-09-30T10:51:41.116Z,99.90
2022-09-30T10:54:30.874Z,99.90
2022-09-30T10:57:03.913Z,99.90
2022-09-30T10:59:37.041Z,99.90
2022-09-30T11:02:34.951Z,99.90
2022-09-30T11:05:13.470Z,99.90
2022-09-30T11:07:48.298Z,99.90
2022-09-30T11:10:31.476Z,99.90
2022-09-30T11:13:07.912Z,99.90
2022-09-30T11:15:46.210Z,99.90
2022-09-30T11:18:21.787Z,99.90
2022-09-30T11:20:55.302Z,99.90
2022-09-30T11:23:30.319Z,99.90
2022-09-30T11:26:07.170Z,99.90
2022-09-30T11:28:56.031Z,99.90
2022-09-30T11:31:32.259Z,99.90
2022-09-30T11:34:19.771Z,99.90
2022-09-30T11:36:55.597Z,99.90
2022-09-30T11:39:47.507Z,99.90
2022-09-30T11:42:20.874Z,99.90
2022-09-30T11:45:06.209Z,99.90
2022-09-30T11:48:00.322Z,99.90
2022-09-30T11:50:38.275Z,99.90
2022-09-30T11:53:18.840Z,99.90
2022-09-30T11:56:05.450Z,99.90
2022-09-30T11:58:42.333Z,99.90
2022-09-30T12:01:23.646Z,99.90
2022-09-30T12:03:59.748Z,99.90
2022-09-30T12:06:33.058Z,99.90
2022-09-30T12:09:07.728Z,99.90
2022-09-30T12:11:42.613Z,99.90
2022-09-30T12:14:19.358Z,99.90
2022-09-30T12:16:51.305Z,99.90
2022-09-30T12:19:25.741Z,99.90
2022-09-30T12:21:59.055Z,99.90
2022-09-30T12:24:33.535Z,99.90
2022-09-30T12:27:01.970Z,99.90
2022-09-30T12:29:52.154Z,99.90
2022-09-30T12:33:02.116Z,99.90
2022-09-30T12:36:06.030Z,99.90
2022-09-30T12:38:54.829Z,99.90
2022-09-30T12:41:43.087Z,99.90
2022-09-30T12:44:42.748Z,99.90
2022-09-30T12:47:39.618Z,99.90
2022-09-30T12:50:10.147Z,99.90
2022-09-30T12:52:39.339Z,99.90
2022-09-30T12:55:19.946Z,99.80
2022-09-30T12:57:49.810Z,99.10
2022-09-30T13:00:20.027Z,99.10
2022-09-30T13:02:50.803Z,98.30
2022-09-30T13:05:56.377Z,97.20
2022-09-30T13:08:44.253Z,96.50
2022-09-30T13:11:36.207Z,96.30
2022-09-30T13:14:16.018Z,96.00
2022-09-30T13:17:01.958Z,95.50
2022-09-30T13:19:36.440Z,95.40
2022-09-30T13:22:53.845Z,94.20
2022-09-30T13:25:23.292Z,93.90
2022-09-30T13:27:55.266Z,92.90
2022-09-30T13:30:41.186Z,93.10
2022-09-30T13:33:32.828Z,91.90
2022-09-30T13:36:10.267Z,92.30
2022-09-30T13:38:41.228Z,92.90
2022-09-30T13:41:21.882Z,93.60
2022-09-30T13:44:03.329Z,93.50
2022-09-30T13:46:36.566Z,93.10
2022-09-30T13:49:12.648Z,92.10
2022-09-30T13:51:41.759Z,92.10
2022-09-30T13:54:20.705Z,92.20
2022-09-30T13:56:51.894Z,91.80
2022-09-30T13:59:40.351Z,92.10
2022-09-30T14:02:32.681Z,92.70
2022-09-30T14:05:28.035Z,92.10
2022-09-30T14:08:25.148Z,90.90
2022-09-30T14:11:08.630Z,90.00
2022-09-30T14:13:51.078Z,90.70
2022-09-30T14:16:42.055Z,86.60
2022-09-30T14:19:38.383Z,81.20
2022-09-30T14:22:09.095Z,77.50
2022-09-30T14:24:40.123Z,72.60
2022-09-30T14:27:33.455Z,68.90
2022-09-30T14:30:07.943Z,64.40
2022-09-30T14:32:42.120Z,62.90
2022-09-30T14:35:14.021Z,61.80
2022-09-30T14:37:46.214Z,60.50
2022-09-30T14:40:18.615Z,60.30
2022-09-30T14:42:48.292Z,63.40
2022-09-30T14:45:24.690Z,63.50
2022-09-30T14:47:54.125Z,66.10
2022-09-30T14:50:26.038Z,68.40
2022-09-30T14:52:55.837Z,70.40
2022-09-30T14:55:28.067Z,71.80
2022-09-30T14:57:58.696Z,72.70
2022-09-30T15:00:31.901Z,74.20
2022-09-30T15:03:00.811Z,76.30
2022-09-30T15:05:29.588Z,76.80
2022-09-30T15:07:57.814Z,78.20
2022-09-30T15:10:26.720Z,78.20
2022-09-30T15:12:56.280Z,78.40
2022-09-30T15:15:43.838Z,78.30
2022-09-30T15:18:32.381Z,78.80
2022-09-30T15:21:08.638Z,79.40
2022-09-30T15:23:40.117Z,80.10
2022-09-30T15:26:08.854Z,80.00
2022-09-30T15:28:38.097Z,82.40
2022-09-30T15:31:07.805Z,82.30
2022-09-30T15:33:37.406Z,82.20
2022-09-30T15:36:08.293Z,83.60
2022-09-30T15:38:38.736Z,85.60
2022-09-30T15:41:08.959Z,84.60
2022-09-30T15:43:40.983Z,85.20
2022-09-30T15:46:28.752Z,84.90
2022-09-30T15:49:02.693Z,85.50
2022-09-30T15:51:33.836Z,87.00
2022-09-30T15:54:03.622Z,87.40
2022-09-30T15:56:36.129Z,86.40
2022-09-30T15:59:07.714Z,85.70
2022-09-30T16:01:40.273Z,85.90
2022-09-30T16:04:15.434Z,86.60
2022-09-30T16:06:51.702Z,85.30
2022-09-30T16:09:23.253Z,85.50
2022-09-30T16:12:05.319Z,86.80
2022-09-30T16:14:37.313Z,86.70
2022-09-30T16:17:07.590Z,86.80
2022-09-30T16:19:37.036Z,87.20
2022-09-30T16:22:06.420Z,87.80
2022-09-30T16:24:48.759Z,89.30
2022-09-30T16:27:31.502Z,90.00
2022-09-30T16:30:01.083Z,90.00
2022-09-30T16:32:33.165Z,90.40
2022-09-30T16:35:02.749Z,90.70
2022-09-30T16:37:31.227Z,90.80
2022-09-30T16:40:10.447Z,90.70
2022-09-30T16:42:38.456Z,91.60
2022-09-30T16:45:07.594Z,92.00
2022-09-30T16:47:35.598Z,92.50
2022-09-30T16:50:22.795Z,93.50
2022-09-30T16:52:50.962Z,93.10
2022-09-30T16:55:19.209Z,93.30
2022-09-30T16:57:47.318Z,93.20
2022-09-30T17:00:18.190Z,93.50
2022-09-30T17:02:48.132Z,93.10
2022-09-30T17:05:20.220Z,93.20
2022-09-30T17:07:50.829Z,93.50
2022-09-30T17:10:22.535Z,93.30
2022-09-30T17:12:51.244Z,93.60
2022-09-30T17:15:19.947Z,93.70
2022-09-30T17:17:48.628Z,93.60
2022-09-30T17:20:18.169Z,93.70
2022-09-30T17:22:47.079Z,94.20
2022-09-30T17:25:15.934Z,94.40
2022-09-30T17:27:44.271Z,94.40
2022-09-30T17:30:13.018Z,94.60
2022-09-30T17:32:42.312Z,95.00
2022-09-30T17:35:10.928Z,94.90
2022-09-30T17:37:43.841Z,95.40
2022-09-30T17:40:32.120Z,95.30
2022-09-30T17:43:10.478Z,95.10
2022-09-30T17:45:40.947Z,95.70
2022-09-30T17:48:10.346Z,95.80
2022-09-30T17:50:39.709Z,95.70
2022-09-30T17:53:09.370Z,96.30
2022-09-30T17:55:37.744Z,95.80
2022-09-30T17:58:07.804Z,96.00
2022-09-30T18:00:38.776Z,96.20
2022-09-30T18:03:08.856Z,96.40
2022-09-30T18:05:37.790Z,96.90
2022-09-30T18:08:06.230Z,97.10
2022-09-30T18:10:37.991Z,97.30
2022-09-30T18:13:06.189Z,97.40
2022-09-30T18:15:34.421Z,97.80
2022-09-30T18:18:02.676Z,98.00
2022-09-30T18:20:30.860Z,98.30
2022-09-30T18:22:59.026Z,98.80
2022-09-30T18:25:27.232Z,99.00
2022-09-30T18:27:59.019Z,99.40
2022-09-30T18:30:27.742Z,99.70
2022-09-30T18:32:57.079Z,99.70
2022-09-30T18:35:25.782Z,99.90
2022-09-30T18:37:54.501Z,99.90
2022-09-30T18:40:24.599Z,99.90
2022-09-30T18:42:58.425Z,99.90
2022-09-30T18:45:28.120Z,99.90
2022-09-30T18:47:57.760Z,99.90
2022-09-30T18:50:28.279Z,99.90
2022-09-30T18:52:57.797Z,99.90
2022-09-30T18:55:26.486Z,99.90
2022-09-30T18:57:57.875Z,99.90
2022-09-30T19:00:30.446Z,99.90
2022-09-30T19:03:01.436Z,99.90
2022-09-30T19:05:29.723Z,99.90
2022-09-30T19:07:57.849Z,99.90
2022-09-30T19:10:26.419Z,99.90
2022-09-30T19:12:55.837Z,99.90
2022-09-30T19:15:24.243Z,99.90
2022-09-30T19:17:53.730Z,99.90
2022-09-30T19:20:22.623Z,99.90
2022-09-30T19:22:51.879Z,99.90
2022-09-30T19:25:20.425Z,99.90
2022-09-30T19:27:49.494Z,99.90
2022-09-30T19:30:19.610Z,99.90
2022-09-30T19:32:47.784Z,99.90
2022-09-30T19:35:17.131Z,99.90
2022-09-30T19:37:59.009Z,99.90
2022-09-30T19:43:06.894Z,99.90
2022-09-30T19:45:36.647Z,99.90
2022-09-30T19:48:04.926Z,99.90
2022-09-30T19:50:36.817Z,99.90
2022-09-30T19:53:04.908Z,99.90
2022-09-30T19:55:43.917Z,99.90
2022-09-30T19:58:16.234Z,99.90
2022-09-30T20:00:53.598Z,99.90
2022-09-30T20:03:22.455Z,99.90
2022-09-30T20:05:51.264Z,99.90
2022-09-30T20:08:20.398Z,99.90
2022-09-30T20:10:48.632Z,99.90
2022-09-30T20:13:16.687Z,99.90
2022-09-30T20:15:51.076Z,99.90
2022-09-30T20:18:19.505Z,99.90
2022-09-30T20:20:47.642Z,99.90
2022-09-30T20:23:16.196Z,99.90
2022-09-30T20:25:44.284Z,99.90
2022-09-30T20:28:12.478Z,99.90
2022-09-30T20:30:45.474Z,99.90
2022-09-30T20:33:16.693Z,99.90
2022-09-30T20:35:44.848Z,99.90
2022-09-30T20:38:14.748Z,99.90
2022-09-30T20:40:43.258Z,99.90
2022-09-30T20:43:11.715Z,99.90
2022-09-30T20:45:41.423Z,99.90
2022-09-30T20:48:09.649Z,99.90
2022-09-30T20:50:43.351Z,99.90
2022-09-30T20:53:13.698Z,99.90
2022-09-30T20:55:44.318Z,99.90
2022-09-30T20:58:13.717Z,99.90
2022-09-30T21:00:42.739Z,99.90
2022-09-30T21:03:12.761Z,99.90
2022-09-30T21:05:42.124Z,99.90
2022-09-30T21:08:10.130Z,99.90
2022-09-30T21:10:38.777Z,99.90
2022-09-30T21:13:11.351Z,99.90
2022-09-30T21:15:39.696Z,99.90
2022-09-30T21:18:08.256Z,99.90
2022-09-30T21:20:36.858Z,99.90
2022-09-30T21:23:06.330Z,99.90
2022-09-30T21:25:34.642Z,99.90
2022-09-30T21:28:04.600Z,99.90
2022-09-30T21:30:32.642Z,99.90
2022-09-30T21:33:00.798Z,99.90
2022-09-30T21:35:28.870Z,99.90
2022-09-30T21:37:57.008Z,99.90
2022-09-30T21:40:27.970Z,99.90
2022-09-30T21:42:56.035Z,99.90
2022-09-30T21:45:25.181Z,99.90
2022-09-30T21:48:01.841Z,99.90
2022-09-30T21:50:32.221Z,99.90
2022-09-30T21:53:00.511Z,99.90
2022-09-30T21:55:30.700Z,99.90
2022-09-30T21:57:58.929Z,99.90
2022-09-30T22:00:27.268Z,99.90
2022-09-30T22:02:55.277Z,99.90
2022-09-30T22:05:23.356Z,99.90
2022-09-30T22:07:51.355Z,99.90
2022-09-30T22:10:19.473Z,99.90
2022-09-30T22:12:49.990Z,99.90
2022-09-30T22:15:18.164Z,99.90
2022-09-30T22:17:46.146Z,99.90
2022-09-30T22:20:14.231Z,99.90
2022-09-30T22:22:42.207Z,99.90
2022-09-30T22:25:10.676Z,99.90
2022-09-30T22:27:38.774Z,99.90
2022-09-30T22:30:10.911Z,99.90
2022-09-30T22:32:38.992Z,99.90
2022-09-30T22:35:25.637Z,99.90
2022-09-30T22:38:11.088Z,99.90
2022-09-30T22:40:39.377Z,99.90
2022-09-30T22:43:07.436Z,99.90
2022-09-30T22:45:36.810Z,99.90
2022-09-30T22:48:04.859Z,99.90
2022-09-30T22:50:36.449Z,99.90
2022-09-30T22:53:04.446Z,99.90
2022-09-30T22:55:33.177Z,99.90
2022-09-30T22:58:01.191Z,99.90
2022-09-30T23:00:29.203Z,99.90
2022-09-30T23:02:58.551Z,99.90
2022-09-30T23:05:27.298Z,99.90
2022-09-30T23:07:55.371Z,99.90
2022-09-30T23:10:24.153Z,99.90
2022-09-30T23:12:53.315Z,99.90
2022-09-30T23:15:21.305Z,99.90
2022-09-30T23:17:49.280Z,99.90
2022-09-30T23:20:18.761Z,99.90
2022-09-30T23:22:47.018Z,99.90
2022-09-30T23:25:15.162Z,99.90
2022-09-30T23:27:43.196Z,99.90
2022-09-30T23:30:11.814Z,99.90
2022-09-30T23:32:40.122Z,99.90
2022-09-30T23:35:08.939Z,99.90
2022-09-30T23:37:38.307Z,99.90
2022-09-30T23:40:07.438Z,99.90
2022-09-30T23:42:35.423Z,99.90
2022-09-30T23:45:03.428Z,99.90
2022-09-30T23:47:31.390Z,99.90
2022-09-30T23:49:59.357Z,99.90
2022-09-30T23:52:27.534Z,99.90
2022-09-30T23:54:56.892Z,99.90
2022-09-30T23:57:24.953Z,99.90
2022-09-30T23:59:52.891Z,99.90
